sensor_id;sensor_type;location;lat;lon;timestamp;temperature;humidity
22738;DHT22;11536;50.860;4.286;2023-07-13T00:01:25;18.70;98.10
22738;DHT22;11536;50.860;4.286;2023-07-13T00:03:52;18.70;98.10
22738;DHT22;11536;50.860;4.286;2023-07-13T00:06:17;18.70;98.10
22738;DHT22;11536;50.860;4.286;2023-07-13T00:08:45;18.60;98.30
22738;DHT22;11536;50.860;4.286;2023-07-13T00:11:10;18.60;98.30
22738;DHT22;11536;50.860;4.286;2023-07-13T00:13:36;18.60;98.40
22738;DHT22;11536;50.860;4.286;2023-07-13T00:16:03;18.50;98.50
22738;DHT22;11536;50.860;4.286;2023-07-13T00:18:29;18.50;98.60
22738;DHT22;11536;50.860;4.286;2023-07-13T00:20:56;18.40;98.60
22738;DHT22;11536;50.860;4.286;2023-07-13T00:23:21;18.40;98.60
22738;DHT22;11536;50.860;4.286;2023-07-13T00:25:47;18.40;98.70
22738;DHT22;11536;50.860;4.286;2023-07-13T00:28:12;18.40;98.60
22738;DHT22;11536;50.860;4.286;2023-07-13T00:30:38;18.40;98.70
22738;DHT22;11536;50.860;4.286;2023-07-13T00:33:04;18.40;98.70
22738;DHT22;11536;50.860;4.286;2023-07-13T00:35:30;18.40;98.70
22738;DHT22;11536;50.860;4.286;2023-07-13T00:37:56;18.30;98.80
22738;DHT22;11536;50.860;4.286;2023-07-13T00:40:21;18.30;98.80
22738;DHT22;11536;50.860;4.286;2023-07-13T00:42:47;18.30;99.00
22738;DHT22;11536;50.860;4.286;2023-07-13T00:47:39;18.20;99.00
22738;DHT22;11536;50.860;4.286;2023-07-13T00:50:08;18.20;99.00
22738;DHT22;11536;50.860;4.286;2023-07-13T00:52:37;18.20;99.10
22738;DHT22;11536;50.860;4.286;2023-07-13T00:55:04;18.20;99.20
22738;DHT22;11536;50.860;4.286;2023-07-13T00:57:29;18.20;99.10
22738;DHT22;11536;50.860;4.286;2023-07-13T00:59:58;18.10;99.20
22738;DHT22;11536;50.860;4.286;2023-07-13T01:02:25;18.10;99.20
22738;DHT22;11536;50.860;4.286;2023-07-13T01:04:51;18.10;99.20
22738;DHT22;11536;50.860;4.286;2023-07-13T01:07:18;18.10;99.20
22738;DHT22;11536;50.860;4.286;2023-07-13T01:09:44;18.10;99.40
22738;DHT22;11536;50.860;4.286;2023-07-13T01:12:11;18.10;99.40
22738;DHT22;11536;50.860;4.286;2023-07-13T01:14:37;18.10;99.40
22738;DHT22;11536;50.860;4.286;2023-07-13T01:17:03;18.10;99.50
22738;DHT22;11536;50.860;4.286;2023-07-13T01:22:24;18.00;99.40
22738;DHT22;11536;50.860;4.286;2023-07-13T01:24:52;18.00;99.60
22738;DHT22;11536;50.860;4.286;2023-07-13T01:27:23;18.00;99.60
22738;DHT22;11536;50.860;4.286;2023-07-13T01:29:51;17.90;99.50
22738;DHT22;11536;50.860;4.286;2023-07-13T01:32:20;17.90;99.70
22738;DHT22;11536;50.860;4.286;2023-07-13T01:34:48;17.90;99.80
22738;DHT22;11536;50.860;4.286;2023-07-13T01:37:14;17.80;99.70
22738;DHT22;11536;50.860;4.286;2023-07-13T01:39:40;17.80;99.80
22738;DHT22;11536;50.860;4.286;2023-07-13T01:42:06;17.80;99.90
22738;DHT22;11536;50.860;4.286;2023-07-13T01:44:31;17.80;99.90
22738;DHT22;11536;50.860;4.286;2023-07-13T01:46:57;17.80;99.90
22738;DHT22;11536;50.860;4.286;2023-07-13T01:49:23;17.80;99.90
22738;DHT22;11536;50.860;4.286;2023-07-13T01:51:48;17.80;99.90
22738;DHT22;11536;50.860;4.286;2023-07-13T01:54:14;17.70;99.90
22738;DHT22;11536;50.860;4.286;2023-07-13T01:56:40;17.70;99.90
22738;DHT22;11536;50.860;4.286;2023-07-13T01:59:07;17.70;99.90
22738;DHT22;11536;50.860;4.286;2023-07-13T02:01:33;17.60;99.90
22738;DHT22;11536;50.860;4.286;2023-07-13T02:03:58;17.60;99.90
22738;DHT22;11536;50.860;4.286;2023-07-13T02:06:24;17.60;99.90
22738;DHT22;11536;50.860;4.286;2023-07-13T02:08:49;17.50;99.90
22738;DHT22;11536;50.860;4.286;2023-07-13T02:11:15;17.50;99.90
22738;DHT22;11536;50.860;4.286;2023-07-13T02:13:41;17.50;99.90
22738;DHT22;11536;50.860;4.286;2023-07-13T02:16:06;17.40;99.90
22738;DHT22;11536;50.860;4.286;2023-07-13T02:18:32;17.40;99.90
22738;DHT22;11536;50.860;4.286;2023-07-13T02:20:57;17.40;99.90
22738;DHT22;11536;50.860;4.286;2023-07-13T02:23:23;17.40;99.90
22738;DHT22;11536;50.860;4.286;2023-07-13T02:25:49;17.40;99.90
22738;DHT22;11536;50.860;4.286;2023-07-13T02:28:14;17.40;99.90
22738;DHT22;11536;50.860;4.286;2023-07-13T02:30:40;17.40;99.90
22738;DHT22;11536;50.860;4.286;2023-07-13T02:33:05;17.40;99.90
22738;DHT22;11536;50.860;4.286;2023-07-13T02:35:31;17.40;99.90
22738;DHT22;11536;50.860;4.286;2023-07-13T02:37:57;17.40;99.90
22738;DHT22;11536;50.860;4.286;2023-07-13T02:40:23;17.30;99.90
22738;DHT22;11536;50.860;4.286;2023-07-13T02:42:48;17.30;99.90
22738;DHT22;11536;50.860;4.286;2023-07-13T02:45:14;17.30;99.90
22738;DHT22;11536;50.860;4.286;2023-07-13T02:47:41;17.30;99.90
22738;DHT22;11536;50.860;4.286;2023-07-13T02:50:07;17.30;99.90
22738;DHT22;11536;50.860;4.286;2023-07-13T02:52:33;17.20;99.90
22738;DHT22;11536;50.860;4.286;2023-07-13T02:54:59;17.20;99.90
22738;DHT22;11536;50.860;4.286;2023-07-13T02:57:24;17.20;99.90
22738;DHT22;11536;50.860;4.286;2023-07-13T02:59:50;17.20;99.90
22738;DHT22;11536;50.860;4.286;2023-07-13T03:02:16;17.10;99.90
22738;DHT22;11536;50.860;4.286;2023-07-13T03:04:42;17.10;99.90
22738;DHT22;11536;50.860;4.286;2023-07-13T03:07:07;17.10;99.90
22738;DHT22;11536;50.860;4.286;2023-07-13T03:09:34;17.10;99.90
22738;DHT22;11536;50.860;4.286;2023-07-13T03:12:00;17.00;99.90
22738;DHT22;11536;50.860;4.286;2023-07-13T03:14:26;17.00;99.90
22738;DHT22;11536;50.860;4.286;2023-07-13T03:16:52;17.00;99.90
22738;DHT22;11536;50.860;4.286;2023-07-13T03:19:18;17.00;99.90
22738;DHT22;11536;50.860;4.286;2023-07-13T03:21:44;17.00;99.90
22738;DHT22;11536;50.860;4.286;2023-07-13T03:24:10;16.90;99.90
22738;DHT22;11536;50.860;4.286;2023-07-13T03:26:36;16.90;99.90
22738;DHT22;11536;50.860;4.286;2023-07-13T03:29:02;16.90;99.90
22738;DHT22;11536;50.860;4.286;2023-07-13T03:31:30;16.90;99.90
22738;DHT22;11536;50.860;4.286;2023-07-13T03:33:56;16.90;99.90
22738;DHT22;11536;50.860;4.286;2023-07-13T03:36:27;16.80;99.90
22738;DHT22;11536;50.860;4.286;2023-07-13T03:38:56;16.80;99.90
22738;DHT22;11536;50.860;4.286;2023-07-13T03:41:23;16.80;99.90
22738;DHT22;11536;50.860;4.286;2023-07-13T03:43:49;16.80;99.90
22738;DHT22;11536;50.860;4.286;2023-07-13T03:46:16;16.80;99.90
22738;DHT22;11536;50.860;4.286;2023-07-13T03:48:43;16.80;99.90
22738;DHT22;11536;50.860;4.286;2023-07-13T03:51:10;16.80;99.90
22738;DHT22;11536;50.860;4.286;2023-07-13T03:53:40;16.80;99.90
22738;DHT22;11536;50.860;4.286;2023-07-13T03:56:07;16.70;99.90
22738;DHT22;11536;50.860;4.286;2023-07-13T03:58:35;16.80;99.90
22738;DHT22;11536;50.860;4.286;2023-07-13T04:01:02;16.70;99.90
22738;DHT22;11536;50.860;4.286;2023-07-13T04:03:28;16.70;99.90
22738;DHT22;11536;50.860;4.286;2023-07-13T04:05:55;16.70;99.90
22738;DHT22;11536;50.860;4.286;2023-07-13T04:08:29;16.70;99.90
22738;DHT22;11536;50.860;4.286;2023-07-13T04:10:56;16.70;99.90
22738;DHT22;11536;50.860;4.286;2023-07-13T04:13:22;16.70;99.90
22738;DHT22;11536;50.860;4.286;2023-07-13T04:15:48;16.70;99.90
22738;DHT22;11536;50.860;4.286;2023-07-13T04:18:13;16.70;99.90
22738;DHT22;11536;50.860;4.286;2023-07-13T04:20:39;16.80;99.90
22738;DHT22;11536;50.860;4.286;2023-07-13T04:23:04;16.80;99.90
22738;DHT22;11536;50.860;4.286;2023-07-13T04:25:30;16.80;99.90
22738;DHT22;11536;50.860;4.286;2023-07-13T04:27:56;16.80;99.90
22738;DHT22;11536;50.860;4.286;2023-07-13T04:30:22;16.80;99.90
22738;DHT22;11536;50.860;4.286;2023-07-13T04:32:49;16.80;99.90
22738;DHT22;11536;50.860;4.286;2023-07-13T04:35:15;16.90;99.90
22738;DHT22;11536;50.860;4.286;2023-07-13T04:37:40;16.90;99.90
22738;DHT22;11536;50.860;4.286;2023-07-13T04:40:06;16.90;99.90
22738;DHT22;11536;50.860;4.286;2023-07-13T04:42:36;16.90;99.90
22738;DHT22;11536;50.860;4.286;2023-07-13T04:45:02;17.00;99.90
22738;DHT22;11536;50.860;4.286;2023-07-13T04:47:30;17.00;99.90
22738;DHT22;11536;50.860;4.286;2023-07-13T04:49:58;16.90;99.90
22738;DHT22;11536;50.860;4.286;2023-07-13T04:52:24;17.00;99.90
22738;DHT22;11536;50.860;4.286;2023-07-13T04:54:50;17.00;99.90
22738;DHT22;11536;50.860;4.286;2023-07-13T04:57:16;17.00;99.90
22738;DHT22;11536;50.860;4.286;2023-07-13T04:59:41;17.00;99.90
22738;DHT22;11536;50.860;4.286;2023-07-13T05:02:07;17.00;99.90
22738;DHT22;11536;50.860;4.286;2023-07-13T05:04:33;17.00;99.90
22738;DHT22;11536;50.860;4.286;2023-07-13T05:06:59;17.10;99.90
22738;DHT22;11536;50.860;4.286;2023-07-13T05:09:25;17.10;99.90
22738;DHT22;11536;50.860;4.286;2023-07-13T05:11:50;17.10;99.90
22738;DHT22;11536;50.860;4.286;2023-07-13T05:14:16;17.10;99.90
22738;DHT22;11536;50.860;4.286;2023-07-13T05:16:42;17.10;99.90
22738;DHT22;11536;50.860;4.286;2023-07-13T05:19:08;17.20;99.90
22738;DHT22;11536;50.860;4.286;2023-07-13T05:21:34;17.20;99.90
22738;DHT22;11536;50.860;4.286;2023-07-13T05:23:59;17.20;99.90
22738;DHT22;11536;50.860;4.286;2023-07-13T05:26:25;17.20;99.90
22738;DHT22;11536;50.860;4.286;2023-07-13T05:28:51;17.20;99.90
22738;DHT22;11536;50.860;4.286;2023-07-13T05:31:16;17.20;99.90
22738;DHT22;11536;50.860;4.286;2023-07-13T05:33:42;17.30;99.90
22738;DHT22;11536;50.860;4.286;2023-07-13T05:36:08;17.30;99.90
22738;DHT22;11536;50.860;4.286;2023-07-13T05:38:33;17.30;99.90
22738;DHT22;11536;50.860;4.286;2023-07-13T05:40:59;17.40;99.90
22738;DHT22;11536;50.860;4.286;2023-07-13T05:43:25;17.30;99.90
22738;DHT22;11536;50.860;4.286;2023-07-13T05:45:55;17.40;99.90
22738;DHT22;11536;50.860;4.286;2023-07-13T05:48:21;17.40;99.90
22738;DHT22;11536;50.860;4.286;2023-07-13T05:50:47;17.40;99.90
22738;DHT22;11536;50.860;4.286;2023-07-13T05:53:13;17.40;99.90
22738;DHT22;11536;50.860;4.286;2023-07-13T05:55:56;17.40;99.90
22738;DHT22;11536;50.860;4.286;2023-07-13T05:58:22;17.50;99.90
22738;DHT22;11536;50.860;4.286;2023-07-13T06:00:48;17.50;99.90
22738;DHT22;11536;50.860;4.286;2023-07-13T06:03:16;17.50;99.90
22738;DHT22;11536;50.860;4.286;2023-07-13T06:05:41;17.50;99.90
22738;DHT22;11536;50.860;4.286;2023-07-13T06:08:08;17.60;99.90
22738;DHT22;11536;50.860;4.286;2023-07-13T06:10:35;17.60;99.90
22738;DHT22;11536;50.860;4.286;2023-07-13T06:13:01;17.60;99.90
22738;DHT22;11536;50.860;4.286;2023-07-13T06:15:26;17.60;99.90
22738;DHT22;11536;50.860;4.286;2023-07-13T06:17:52;17.70;99.90
22738;DHT22;11536;50.860;4.286;2023-07-13T06:20:17;17.70;99.90
22738;DHT22;11536;50.860;4.286;2023-07-13T06:22:43;17.70;99.90
22738;DHT22;11536;50.860;4.286;2023-07-13T06:25:09;17.70;99.90
22738;DHT22;11536;50.860;4.286;2023-07-13T06:27:35;17.80;99.90
22738;DHT22;11536;50.860;4.286;2023-07-13T06:30:00;17.80;99.90
22738;DHT22;11536;50.860;4.286;2023-07-13T06:32:26;17.80;99.90
22738;DHT22;11536;50.860;4.286;2023-07-13T06:34:52;17.90;99.90
22738;DHT22;11536;50.860;4.286;2023-07-13T06:37:18;17.90;99.90
22738;DHT22;11536;50.860;4.286;2023-07-13T06:39:44;18.00;99.90
22738;DHT22;11536;50.860;4.286;2023-07-13T06:42:09;18.00;99.90
22738;DHT22;11536;50.860;4.286;2023-07-13T06:44:36;18.00;99.90
22738;DHT22;11536;50.860;4.286;2023-07-13T06:47:02;18.10;99.90
22738;DHT22;11536;50.860;4.286;2023-07-13T06:49:27;18.10;99.90
22738;DHT22;11536;50.860;4.286;2023-07-13T06:51:53;18.20;99.90
22738;DHT22;11536;50.860;4.286;2023-07-13T06:54:18;18.20;99.90
22738;DHT22;11536;50.860;4.286;2023-07-13T06:56:44;18.20;99.90
22738;DHT22;11536;50.860;4.286;2023-07-13T06:59:10;18.30;99.90
22738;DHT22;11536;50.860;4.286;2023-07-13T07:01:35;18.30;99.90
22738;DHT22;11536;50.860;4.286;2023-07-13T07:04:01;18.30;99.90
22738;DHT22;11536;50.860;4.286;2023-07-13T07:06:26;18.30;99.90
22738;DHT22;11536;50.860;4.286;2023-07-13T07:08:53;18.30;99.90
22738;DHT22;11536;50.860;4.286;2023-07-13T07:11:21;18.40;99.90
22738;DHT22;11536;50.860;4.286;2023-07-13T07:13:54;18.40;99.90
22738;DHT22;11536;50.860;4.286;2023-07-13T07:16:20;18.60;99.90
22738;DHT22;11536;50.860;4.286;2023-07-13T07:18:46;18.50;99.90
22738;DHT22;11536;50.860;4.286;2023-07-13T07:21:12;18.60;99.90
22738;DHT22;11536;50.860;4.286;2023-07-13T07:23:38;18.60;99.90
22738;DHT22;11536;50.860;4.286;2023-07-13T07:26:04;18.60;99.90
22738;DHT22;11536;50.860;4.286;2023-07-13T07:28:30;18.70;99.90
22738;DHT22;11536;50.860;4.286;2023-07-13T07:30:57;18.80;99.90
22738;DHT22;11536;50.860;4.286;2023-07-13T07:33:24;18.80;99.90
22738;DHT22;11536;50.860;4.286;2023-07-13T07:35:50;18.80;99.90
22738;DHT22;11536;50.860;4.286;2023-07-13T07:38:16;18.90;99.90
22738;DHT22;11536;50.860;4.286;2023-07-13T07:40:42;19.00;99.90
22738;DHT22;11536;50.860;4.286;2023-07-13T07:43:08;19.00;99.90
22738;DHT22;11536;50.860;4.286;2023-07-13T07:45:34;19.00;99.90
22738;DHT22;11536;50.860;4.286;2023-07-13T07:48:00;19.00;99.90
22738;DHT22;11536;50.860;4.286;2023-07-13T07:50:27;19.10;99.90
22738;DHT22;11536;50.860;4.286;2023-07-13T07:52:53;19.20;99.90
22738;DHT22;11536;50.860;4.286;2023-07-13T07:55:19;19.30;99.90
22738;DHT22;11536;50.860;4.286;2023-07-13T07:57:44;19.30;99.90
22738;DHT22;11536;50.860;4.286;2023-07-13T08:00:11;19.40;99.90
22738;DHT22;11536;50.860;4.286;2023-07-13T08:02:36;19.40;99.90
22738;DHT22;11536;50.860;4.286;2023-07-13T08:05:02;19.50;99.90
22738;DHT22;11536;50.860;4.286;2023-07-13T08:07:30;19.50;99.90
22738;DHT22;11536;50.860;4.286;2023-07-13T08:09:56;19.50;99.90
22738;DHT22;11536;50.860;4.286;2023-07-13T08:12:22;19.60;99.90
22738;DHT22;11536;50.860;4.286;2023-07-13T08:14:50;19.50;99.90
22738;DHT22;11536;50.860;4.286;2023-07-13T08:17:21;19.60;99.90
22738;DHT22;11536;50.860;4.286;2023-07-13T08:19:47;19.60;99.90
22738;DHT22;11536;50.860;4.286;2023-07-13T08:22:12;19.60;99.90
22738;DHT22;11536;50.860;4.286;2023-07-13T08:24:38;19.60;99.90
22738;DHT22;11536;50.860;4.286;2023-07-13T08:27:04;19.60;99.90
22738;DHT22;11536;50.860;4.286;2023-07-13T08:29:30;19.70;99.90
22738;DHT22;11536;50.860;4.286;2023-07-13T08:31:57;19.70;99.90
22738;DHT22;11536;50.860;4.286;2023-07-13T08:34:23;19.70;99.90
22738;DHT22;11536;50.860;4.286;2023-07-13T08:36:49;19.80;99.90
22738;DHT22;11536;50.860;4.286;2023-07-13T08:39:14;19.80;99.90
22738;DHT22;11536;50.860;4.286;2023-07-13T08:41:40;19.80;99.90
22738;DHT22;11536;50.860;4.286;2023-07-13T08:44:14;19.80;99.90
22738;DHT22;11536;50.860;4.286;2023-07-13T08:46:42;19.90;99.90
22738;DHT22;11536;50.860;4.286;2023-07-13T08:49:18;20.00;99.90
22738;DHT22;11536;50.860;4.286;2023-07-13T08:51:55;20.10;99.90
22738;DHT22;11536;50.860;4.286;2023-07-13T08:54:38;20.10;99.90
22738;DHT22;11536;50.860;4.286;2023-07-13T08:57:18;20.20;99.90
22738;DHT22;11536;50.860;4.286;2023-07-13T08:59:44;20.30;99.90
22738;DHT22;11536;50.860;4.286;2023-07-13T09:04:56;20.30;99.90
22738;DHT22;11536;50.860;4.286;2023-07-13T09:10:19;20.40;99.90
22738;DHT22;11536;50.860;4.286;2023-07-13T09:15:23;20.50;99.90
22738;DHT22;11536;50.860;4.286;2023-07-13T09:17:51;20.60;99.90
22738;DHT22;11536;50.860;4.286;2023-07-13T09:23:21;20.70;99.90
22738;DHT22;11536;50.860;4.286;2023-07-13T09:25:49;20.70;99.90
22738;DHT22;11536;50.860;4.286;2023-07-13T09:28:28;20.70;99.90
22738;DHT22;11536;50.860;4.286;2023-07-13T09:31:11;20.70;99.90
22738;DHT22;11536;50.860;4.286;2023-07-13T09:33:39;20.70;99.90
22738;DHT22;11536;50.860;4.286;2023-07-13T09:36:31;20.70;99.90
22738;DHT22;11536;50.860;4.286;2023-07-13T09:39:12;20.70;99.90
22738;DHT22;11536;50.860;4.286;2023-07-13T09:42:04;20.70;99.90
22738;DHT22;11536;50.860;4.286;2023-07-13T09:44:44;20.80;99.90
22738;DHT22;11536;50.860;4.286;2023-07-13T09:47:24;20.80;99.90
22738;DHT22;11536;50.860;4.286;2023-07-13T09:50:03;20.90;99.90
22738;DHT22;11536;50.860;4.286;2023-07-13T09:55:33;21.10;99.90
22738;DHT22;11536;50.860;4.286;2023-07-13T09:58:19;21.10;99.90
22738;DHT22;11536;50.860;4.286;2023-07-13T10:00:58;21.20;99.90
22738;DHT22;11536;50.860;4.286;2023-07-13T10:03:30;21.20;99.90
22738;DHT22;11536;50.860;4.286;2023-07-13T10:08:36;21.40;99.90
22738;DHT22;11536;50.860;4.286;2023-07-13T10:11:23;21.50;99.90
22738;DHT22;11536;50.860;4.286;2023-07-13T10:13:54;21.40;99.90
22738;DHT22;11536;50.860;4.286;2023-07-13T10:16:22;21.50;99.90
22738;DHT22;11536;50.860;4.286;2023-07-13T10:18:57;21.50;99.90
22738;DHT22;11536;50.860;4.286;2023-07-13T10:21:28;21.50;99.90
22738;DHT22;11536;50.860;4.286;2023-07-13T10:24:20;21.60;99.90
22738;DHT22;11536;50.860;4.286;2023-07-13T10:26:56;21.50;99.90
22738;DHT22;11536;50.860;4.286;2023-07-13T10:29:24;21.50;99.90
22738;DHT22;11536;50.860;4.286;2023-07-13T10:31:51;21.50;99.90
22738;DHT22;11536;50.860;4.286;2023-07-13T10:34:16;21.50;99.90
22738;DHT22;11536;50.860;4.286;2023-07-13T10:36:47;21.50;99.90
22738;DHT22;11536;50.860;4.286;2023-07-13T10:39:19;21.50;99.90
22738;DHT22;11536;50.860;4.286;2023-07-13T10:41:48;21.40;99.90
22738;DHT22;11536;50.860;4.286;2023-07-13T10:44:29;21.40;99.90
22738;DHT22;11536;50.860;4.286;2023-07-13T10:47:01;21.30;99.90
22738;DHT22;11536;50.860;4.286;2023-07-13T10:49:29;21.20;99.90
22738;DHT22;11536;50.860;4.286;2023-07-13T10:51:56;21.20;99.90
22738;DHT22;11536;50.860;4.286;2023-07-13T10:57:20;21.20;99.90
22738;DHT22;11536;50.860;4.286;2023-07-13T11:00:16;21.20;99.90
22738;DHT22;11536;50.860;4.286;2023-07-13T11:02:43;21.20;99.90
22738;DHT22;11536;50.860;4.286;2023-07-13T11:05:28;21.30;99.90
22738;DHT22;11536;50.860;4.286;2023-07-13T11:08:02;21.40;99.90
22738;DHT22;11536;50.860;4.286;2023-07-13T11:10:52;21.40;99.90
22738;DHT22;11536;50.860;4.286;2023-07-13T11:16:57;21.40;99.90
22738;DHT22;11536;50.860;4.286;2023-07-13T11:21:32;21.50;99.90
22738;DHT22;11536;50.860;4.286;2023-07-13T11:24:16;21.50;99.90
22738;DHT22;11536;50.860;4.286;2023-07-13T11:26:50;21.50;99.90
22738;DHT22;11536;50.860;4.286;2023-07-13T11:29:24;21.50;99.90
22738;DHT22;11536;50.860;4.286;2023-07-13T11:31:56;21.50;99.90
22738;DHT22;11536;50.860;4.286;2023-07-13T11:34:35;21.50;99.90
22738;DHT22;11536;50.860;4.286;2023-07-13T11:37:02;21.50;99.90
22738;DHT22;11536;50.860;4.286;2023-07-13T11:39:36;21.50;99.90
22738;DHT22;11536;50.860;4.286;2023-07-13T11:42:06;21.50;99.90
22738;DHT22;11536;50.860;4.286;2023-07-13T11:44:35;21.40;99.90
22738;DHT22;11536;50.860;4.286;2023-07-13T11:47:14;21.30;99.90
22738;DHT22;11536;50.860;4.286;2023-07-13T11:49:44;21.20;99.90
22738;DHT22;11536;50.860;4.286;2023-07-13T11:52:19;21.20;99.90
22738;DHT22;11536;50.860;4.286;2023-07-13T11:54:52;21.10;99.90
22738;DHT22;11536;50.860;4.286;2023-07-13T11:57:30;21.10;99.90
22738;DHT22;11536;50.860;4.286;2023-07-13T12:00:00;21.10;99.90
22738;DHT22;11536;50.860;4.286;2023-07-13T12:02:43;21.10;99.90
22738;DHT22;11536;50.860;4.286;2023-07-13T12:05:15;21.10;99.90
22738;DHT22;11536;50.860;4.286;2023-07-13T12:07:43;21.20;99.90
22738;DHT22;11536;50.860;4.286;2023-07-13T12:12:37;21.20;99.90
22738;DHT22;11536;50.860;4.286;2023-07-13T12:15:11;21.20;99.90
22738;DHT22;11536;50.860;4.286;2023-07-13T12:17:37;21.30;99.90
22738;DHT22;11536;50.860;4.286;2023-07-13T12:20:19;21.20;99.90
22738;DHT22;11536;50.860;4.286;2023-07-13T12:22:46;21.10;99.90
22738;DHT22;11536;50.860;4.286;2023-07-13T12:25:12;20.90;99.90
22738;DHT22;11536;50.860;4.286;2023-07-13T12:27:38;20.70;99.90
22738;DHT22;11536;50.860;4.286;2023-07-13T12:30:26;20.60;99.90
22738;DHT22;11536;50.860;4.286;2023-07-13T12:33:07;20.40;99.90
22738;DHT22;11536;50.860;4.286;2023-07-13T12:35:41;20.20;99.90
22738;DHT22;11536;50.860;4.286;2023-07-13T12:38:10;20.10;99.90
22738;DHT22;11536;50.860;4.286;2023-07-13T12:40:37;20.00;99.90
22738;DHT22;11536;50.860;4.286;2023-07-13T12:43:03;20.00;99.90
22738;DHT22;11536;50.860;4.286;2023-07-13T12:45:30;19.90;99.90
22738;DHT22;11536;50.860;4.286;2023-07-13T12:48:14;19.90;99.90
22738;DHT22;11536;50.860;4.286;2023-07-13T12:50:42;19.80;99.90
22738;DHT22;11536;50.860;4.286;2023-07-13T12:53:17;19.80;99.90
22738;DHT22;11536;50.860;4.286;2023-07-13T12:55:49;19.80;99.90
22738;DHT22;11536;50.860;4.286;2023-07-13T12:58:35;19.80;99.90
22738;DHT22;11536;50.860;4.286;2023-07-13T13:01:02;19.70;99.90
22738;DHT22;11536;50.860;4.286;2023-07-13T13:03:37;19.70;99.90
22738;DHT22;11536;50.860;4.286;2023-07-13T13:08:46;19.80;99.90
22738;DHT22;11536;50.860;4.286;2023-07-13T13:11:11;19.80;99.90
22738;DHT22;11536;50.860;4.286;2023-07-13T13:13:37;19.80;99.90
22738;DHT22;11536;50.860;4.286;2023-07-13T13:16:11;19.80;99.90
22738;DHT22;11536;50.860;4.286;2023-07-13T13:18:37;19.90;99.90
22738;DHT22;11536;50.860;4.286;2023-07-13T13:21:03;19.90;99.90
22738;DHT22;11536;50.860;4.286;2023-07-13T13:23:28;19.90;99.90
22738;DHT22;11536;50.860;4.286;2023-07-13T13:25:54;19.90;99.90
22738;DHT22;11536;50.860;4.286;2023-07-13T13:28:20;19.90;99.90
22738;DHT22;11536;50.860;4.286;2023-07-13T13:30:49;20.00;99.90
22738;DHT22;11536;50.860;4.286;2023-07-13T13:33:17;20.10;99.90
22738;DHT22;11536;50.860;4.286;2023-07-13T13:35:43;20.20;99.90
22738;DHT22;11536;50.860;4.286;2023-07-13T13:38:17;20.30;99.90
22738;DHT22;11536;50.860;4.286;2023-07-13T13:40:45;20.40;99.90
22738;DHT22;11536;50.860;4.286;2023-07-13T13:43:26;20.50;99.90
22738;DHT22;11536;50.860;4.286;2023-07-13T13:45:54;20.60;99.90
22738;DHT22;11536;50.860;4.286;2023-07-13T13:48:33;20.60;99.90
22738;DHT22;11536;50.860;4.286;2023-07-13T13:51:00;20.60;99.90
22738;DHT22;11536;50.860;4.286;2023-07-13T13:53:26;20.60;99.90
22738;DHT22;11536;50.860;4.286;2023-07-13T13:55:52;20.60;99.90
22738;DHT22;11536;50.860;4.286;2023-07-13T13:58:19;20.60;99.90
22738;DHT22;11536;50.860;4.286;2023-07-13T14:00:45;20.80;99.90
22738;DHT22;11536;50.860;4.286;2023-07-13T14:03:19;20.90;99.90
22738;DHT22;11536;50.860;4.286;2023-07-13T14:05:45;21.00;99.90
22738;DHT22;11536;50.860;4.286;2023-07-13T14:08:17;21.20;99.90
22738;DHT22;11536;50.860;4.286;2023-07-13T14:10:44;21.30;99.90
22738;DHT22;11536;50.860;4.286;2023-07-13T14:13:17;21.40;99.90
22738;DHT22;11536;50.860;4.286;2023-07-13T14:15:44;21.50;99.90
22738;DHT22;11536;50.860;4.286;2023-07-13T14:18:10;21.60;99.90
22738;DHT22;11536;50.860;4.286;2023-07-13T14:20:37;21.60;99.90
22738;DHT22;11536;50.860;4.286;2023-07-13T14:23:02;21.60;99.90
22738;DHT22;11536;50.860;4.286;2023-07-13T14:25:28;21.60;99.90
22738;DHT22;11536;50.860;4.286;2023-07-13T14:27:57;21.60;99.90
22738;DHT22;11536;50.860;4.286;2023-07-13T14:30:25;21.50;99.90
22738;DHT22;11536;50.860;4.286;2023-07-13T14:32:51;21.40;99.90
22738;DHT22;11536;50.860;4.286;2023-07-13T14:35:21;21.40;99.90
22738;DHT22;11536;50.860;4.286;2023-07-13T14:37:48;21.40;99.90
22738;DHT22;11536;50.860;4.286;2023-07-13T14:40:17;21.40;99.90
22738;DHT22;11536;50.860;4.286;2023-07-13T14:42:43;21.40;99.90
22738;DHT22;11536;50.860;4.286;2023-07-13T14:45:16;21.50;99.90
22738;DHT22;11536;50.860;4.286;2023-07-13T14:47:42;21.50;99.90
22738;DHT22;11536;50.860;4.286;2023-07-13T14:50:31;21.70;99.90
22738;DHT22;11536;50.860;4.286;2023-07-13T14:52:57;21.70;99.90
22738;DHT22;11536;50.860;4.286;2023-07-13T14:55:23;21.80;99.90
22738;DHT22;11536;50.860;4.286;2023-07-13T14:57:51;21.80;99.90
22738;DHT22;11536;50.860;4.286;2023-07-13T15:00:21;21.90;99.90
22738;DHT22;11536;50.860;4.286;2023-07-13T15:02:51;21.90;99.90
22738;DHT22;11536;50.860;4.286;2023-07-13T15:05:21;21.90;99.90
22738;DHT22;11536;50.860;4.286;2023-07-13T15:07:49;22.00;99.90
22738;DHT22;11536;50.860;4.286;2023-07-13T15:10:19;22.00;99.90
22738;DHT22;11536;50.860;4.286;2023-07-13T15:12:45;22.00;99.90
22738;DHT22;11536;50.860;4.286;2023-07-13T15:15:11;22.00;99.90
22738;DHT22;11536;50.860;4.286;2023-07-13T15:17:42;21.90;99.90
22738;DHT22;11536;50.860;4.286;2023-07-13T15:20:31;21.90;99.90
22738;DHT22;11536;50.860;4.286;2023-07-13T15:22:57;22.00;99.90
22738;DHT22;11536;50.860;4.286;2023-07-13T15:25:26;22.00;99.90
22738;DHT22;11536;50.860;4.286;2023-07-13T15:27:53;22.10;99.90
22738;DHT22;11536;50.860;4.286;2023-07-13T15:30:20;22.10;99.90
22738;DHT22;11536;50.860;4.286;2023-07-13T15:32:46;22.10;99.90
22738;DHT22;11536;50.860;4.286;2023-07-13T15:35:18;22.20;99.90
22738;DHT22;11536;50.860;4.286;2023-07-13T15:37:44;22.30;99.90
22738;DHT22;11536;50.860;4.286;2023-07-13T15:40:11;22.30;99.90
22738;DHT22;11536;50.860;4.286;2023-07-13T15:42:38;22.40;99.90
22738;DHT22;11536;50.860;4.286;2023-07-13T15:45:19;22.40;99.90
22738;DHT22;11536;50.860;4.286;2023-07-13T15:47:46;22.50;99.90
22738;DHT22;11536;50.860;4.286;2023-07-13T15:50:19;22.40;99.90
22738;DHT22;11536;50.860;4.286;2023-07-13T15:52:49;22.40;99.90
22738;DHT22;11536;50.860;4.286;2023-07-13T15:55:15;22.50;99.90
22738;DHT22;11536;50.860;4.286;2023-07-13T15:57:46;22.50;99.90
22738;DHT22;11536;50.860;4.286;2023-07-13T16:00:30;22.50;99.90
22738;DHT22;11536;50.860;4.286;2023-07-13T16:02:55;22.50;99.90
22738;DHT22;11536;50.860;4.286;2023-07-13T16:05:23;22.50;99.90
22738;DHT22;11536;50.860;4.286;2023-07-13T16:07:51;22.50;99.90
22738;DHT22;11536;50.860;4.286;2023-07-13T16:10:37;22.60;99.90
22738;DHT22;11536;50.860;4.286;2023-07-13T16:13:15;22.50;99.90
22738;DHT22;11536;50.860;4.286;2023-07-13T16:15:41;22.60;99.90